Time;durP1;ratioP1;P1;durP2;ratioP2;P2;SDS_P1;SDS_P2;PMS_P1;PMS_P2;Temp;Humidity;BMP_temperature;BMP_pressure;BME280_temperature;BME280_humidity;BME280_pressure;Samples;Min_cycle;Max_cycle;Signal;HPM_P1;HPM_P2
2021/12/06 00:01:16;;;;;;;29.48;19.90;;;2.30;99.90;;;;;;5008051;28;20525;-81
2021/12/06 00:03:48;;;;;;;30.27;22.05;;;2.30;99.90;;;;;;5001036;28;20037;-85
2021/12/06 00:06:16;;;;;;;32.67;22.67;;;2.30;99.90;;;;;;4981192;28;20506;-80
2021/12/06 00:08:42;;;;;;;33.28;21.73;;;2.30;99.90;;;;;;5008348;28;20046;-88
2021/12/06 00:11:09;;;;;;;32.72;23.15;;;3.10;99.90;;;;;;5008314;28;20056;-84
2021/12/06 00:13:40;;;;;;;37.08;23.40;;;2.20;99.90;;;;;;5006107;28;20049;-89
2021/12/06 00:16:13;;;;;;;35.13;23.23;;;2.70;99.90;;;;;;5007843;28;20077;-85
2021/12/06 00:18:38;;;;;;;35.85;24.63;;;3.90;99.90;;;;;;5005233;28;20474;-85
2021/12/06 00:21:06;;;;;;;30.70;21.38;;;2.00;99.90;;;;;;5010494;28;20069;-87
2021/12/06 00:23:32;;;;;;;34.63;21.70;;;2.20;99.90;;;;;;5005120;28;20077;-91
2021/12/06 00:25:58;;;;;;;30.10;21.45;;;2.20;99.90;;;;;;5010978;28;20037;-91
2021/12/06 00:28:24;;;;;;;33.38;23.02;;;2.30;99.90;;;;;;5009806;28;20042;-86
2021/12/06 00:30:51;;;;;;;30.80;22.38;;;2.10;99.90;;;;;;5008999;28;20112;-88
2021/12/06 00:33:17;;;;;;;34.10;22.55;;;4.00;99.90;;;;;;5021306;28;20418;-92
2021/12/06 00:35:43;;;;;;;30.63;21.85;;;2.20;99.90;;;;;;5006196;28;20141;-84
2021/12/06 00:38:09;;;;;;;33.67;22.13;;;2.10;99.90;;;;;;5000626;28;20046;-86
2021/12/06 00:40:38;;;;;;;34.88;23.38;;;2.20;99.90;;;;;;5007177;28;20099;-87
2021/12/06 00:43:04;;;;;;;30.70;21.92;;;2.10;99.90;;;;;;5008811;28;20046;-81
2021/12/06 00:45:30;;;;;;;36.22;22.67;;;2.60;99.90;;;;;;5006360;28;20353;-87
2021/12/06 00:47:56;;;;;;;32.15;20.77;;;2.10;99.90;;;;;;5019497;28;20105;-80
2021/12/06 00:50:24;;;;;;;30.88;22.00;;;2.10;99.90;;;;;;5009763;28;20131;-88
2021/12/06 00:52:51;;;;;;;35.53;23.20;;;2.30;99.90;;;;;;5010371;28;20045;-91
2021/12/06 00:55:18;;;;;;;39.40;24.63;;;2.30;99.90;;;;;;5009257;28;20753;-89
2021/12/06 00:57:45;;;;;;;33.45;23.00;;;1.90;99.90;;;;;;5008877;28;20490;-87
2021/12/06 01:00:36;;;;;;;34.42;24.05;;;1.90;99.90;;;;;;5002972;28;20050;-89
2021/12/06 01:03:08;;;;;;;35.05;24.17;;;2.50;99.90;;;;;;4990915;28;20065;-86
2021/12/06 01:05:34;;;;;;;33.85;23.98;;;2.70;99.90;;;;;;5000893;28;20050;-86
2021/12/06 01:08:01;;;;;;;39.35;25.33;;;1.50;99.90;;;;;;5000311;28;20037;-86
2021/12/06 01:10:28;;;;;;;38.50;25.35;;;2.00;99.90;;;;;;4998637;28;20054;-90
2021/12/06 01:12:55;;;;;;;40.55;24.88;;;2.40;99.90;;;;;;5006327;28;20037;-91
2021/12/06 01:15:21;;;;;;;33.20;24.30;;;1.90;99.90;;;;;;4980548;28;20116;-89
2021/12/06 01:17:48;;;;;;;35.35;23.60;;;2.00;99.90;;;;;;5007004;28;20449;-86
2021/12/06 01:20:19;;;;;;;36.95;24.20;;;1.80;99.90;;;;;;4999548;28;20042;-84
2021/12/06 01:23:00;;;;;;;37.72;24.65;;;1.90;99.90;;;;;;5004056;28;20046;-86
2021/12/06 01:33:04;;;;;;;37.42;24.05;;;2.00;99.90;;;;;;5007012;28;20053;-86
2021/12/06 01:40:59;;;;;;;37.92;24.83;;;2.00;99.90;;;;;;5012826;28;20061;-90
2021/12/06 01:43:25;;;;;;;37.80;23.98;;;1.90;99.90;;;;;;5012858;28;20057;-87
2021/12/06 01:45:51;;;;;;;40.22;26.55;;;2.10;99.90;;;;;;5018677;28;20413;-88
2021/12/06 01:48:16;;;;;;;35.03;24.52;;;1.90;99.90;;;;;;4991269;28;20041;-86
2021/12/06 01:50:42;;;;;;;38.05;25.25;;;2.30;99.90;;;;;;5010734;28;20049;-88
2021/12/06 01:53:08;;;;;;;40.03;24.60;;;2.00;99.90;;;;;;5013346;28;20038;-84
2021/12/06 01:55:37;;;;;;;38.40;23.40;;;1.80;99.90;;;;;;5012999;28;20050;-90
2021/12/06 01:58:05;;;;;;;37.65;23.70;;;1.10;99.90;;;;;;5011627;28;20049;-86
2021/12/06 02:00:43;;;;;;;38.85;23.75;;;1.90;99.90;;;;;;5009296;28;20131;-89
2021/12/06 02:03:09;;;;;;;35.83;24.52;;;1.90;99.90;;;;;;5010454;28;20046;-88
2021/12/06 02:05:36;;;;;;;40.85;25.50;;;1.50;99.90;;;;;;5013898;28;20080;-85
2021/12/06 02:08:03;;;;;;;37.15;24.98;;;1.80;99.90;;;;;;5007441;28;20045;-87
2021/12/06 02:10:29;;;;;;;40.28;26.30;;;1.90;99.90;;;;;;5012188;28;20049;-81
2021/12/06 02:12:55;;;;;;;44.10;26.65;;;1.80;99.90;;;;;;5010514;28;20044;-88
2021/12/06 02:18:16;;;;;;;42.50;26.30;;;1.80;99.90;;;;;;5010278;28;20490;-87
2021/12/06 02:20:50;;;;;;;38.30;24.55;;;1.90;99.90;;;;;;5011103;28;20084;-87
2021/12/06 02:23:18;;;;;;;42.67;26.00;;;2.60;99.90;;;;;;5009549;28;20092;-89
2021/12/06 02:25:44;;;;;;;42.08;26.15;;;2.10;99.90;;;;;;5010553;28;20057;-90
2021/12/06 02:28:09;;;;;;;43.25;25.67;;;1.50;99.90;;;;;;5012233;28;20464;-85
2021/12/06 02:30:35;;;;;;;42.88;26.95;;;1.90;99.90;;;;;;5013218;28;20129;-85
2021/12/06 02:33:01;;;;;;;42.85;26.25;;;1.90;99.90;;;;;;5012007;28;20057;-88
2021/12/06 02:35:27;;;;;;;44.03;25.77;;;0.70;99.90;;;;;;5010470;28;20042;-87
2021/12/06 02:37:53;;;;;;;44.97;24.98;;;1.80;99.90;;;;;;5010681;28;20065;-83
2021/12/06 02:40:23;;;;;;;39.75;25.33;;;1.90;99.90;;;;;;5010100;28;20555;-88
2021/12/06 02:42:49;;;;;;;45.83;26.85;;;2.10;99.90;;;;;;5011689;28;20050;-82
2021/12/06 02:45:18;;;;;;;44.10;25.63;;;2.00;99.90;;;;;;5009070;28;20042;-88
2021/12/06 02:47:44;;;;;;;43.67;25.83;;;3.50;99.90;;;;;;5019227;28;20046;-87
2021/12/06 02:50:11;;;;;;;46.10;26.73;;;2.00;99.90;;;;;;5013399;28;20042;-83
2021/12/06 02:52:39;;;;;;;46.20;26.85;;;1.90;99.90;;;;;;5013195;28;20125;-85
2021/12/06 02:55:22;;;;;;;41.67;24.70;;;1.90;99.90;;;;;;5010853;28;20449;-88
2021/12/06 02:57:54;;;;;;;44.20;25.30;;;1.90;99.90;;;;;;5010484;28;20121;-85
2021/12/06 03:00:19;;;;;;;54.08;29.30;;;2.40;99.90;;;;;;5011286;28;20088;-86
2021/12/06 03:02:45;;;;;;;48.67;28.60;;;1.80;99.90;;;;;;5011429;28;20081;-84
2021/12/06 03:05:11;;;;;;;48.70;27.02;;;3.80;99.90;;;;;;4985680;28;20524;-85
2021/12/06 03:07:38;;;;;;;49.90;27.55;;;1.90;99.90;;;;;;5010513;28;20038;-82
2021/12/06 03:10:08;;;;;;;49.08;28.15;;;3.30;99.90;;;;;;5010720;28;20125;-83
2021/12/06 03:12:35;;;;;;;48.88;29.05;;;1.90;99.90;;;;;;5009535;28;20058;-83
2021/12/06 03:15:03;;;;;;;47.58;27.80;;;1.30;99.90;;;;;;5009730;28;20042;-88
2021/12/06 03:17:30;;;;;;;50.63;28.38;;;3.70;99.90;;;;;;5010354;28;20058;-85
2021/12/06 03:19:57;;;;;;;50.35;29.50;;;1.90;99.90;;;;;;5002655;28;20137;-89
2021/12/06 03:22:23;;;;;;;47.40;28.80;;;1.70;99.90;;;;;;5009507;28;20073;-82
2021/12/06 03:24:49;;;;;;;50.63;30.80;;;1.90;99.90;;;;;;5002065;28;20084;-81
2021/12/06 03:27:15;;;;;;;49.85;29.38;;;1.90;99.90;;;;;;5008479;28;20074;-88
2021/12/06 03:29:42;;;;;;;51.75;28.83;;;1.90;99.90;;;;;;5012652;28;20038;-89
2021/12/06 03:32:08;;;;;;;56.20;30.42;;;2.00;99.90;;;;;;5004482;28;20042;-90
2021/12/06 03:34:35;;;;;;;52.35;31.42;;;2.40;99.90;;;;;;5009636;28;20034;-89
2021/12/06 03:37:04;;;;;;;50.45;30.27;;;1.70;99.90;;;;;;5006334;28;20053;-90
2021/12/06 03:39:36;;;;;;;55.03;30.25;;;2.00;99.90;;;;;;5008287;28;20050;-86
2021/12/06 03:42:05;;;;;;;59.92;29.60;;;2.00;99.90;;;;;;5010893;28;20490;-81
2021/12/06 03:44:31;;;;;;;57.80;31.25;;;2.00;99.90;;;;;;4989693;28;20129;-90
2021/12/06 03:47:04;;;;;;;57.00;31.73;;;1.90;99.90;;;;;;5009153;28;20113;-88
2021/12/06 03:49:30;;;;;;;56.67;30.48;;;2.00;99.90;;;;;;5024787;28;20081;-87
2021/12/06 03:51:56;;;;;;;54.20;30.85;;;2.00;99.90;;;;;;5007746;28;20034;-87
2021/12/06 03:54:25;;;;;;;51.90;28.63;;;2.10;99.90;;;;;;5009466;28;20049;-80
2021/12/06 03:56:51;;;;;;;55.28;30.90;;;1.90;99.90;;;;;;5008005;28;20446;-86
2021/12/06 03:59:17;;;;;;;51.47;30.33;;;1.90;99.90;;;;;;5010376;28;20121;-88
2021/12/06 04:01:43;;;;;;;49.80;28.77;;;2.00;99.90;;;;;;5006673;28;20042;-87
2021/12/06 04:04:10;;;;;;;50.20;30.35;;;1.80;99.90;;;;;;5007878;28;20145;-89
2021/12/06 04:06:37;;;;;;;55.03;31.33;;;2.00;99.90;;;;;;5002558;28;20482;-81
2021/12/06 04:09:04;;;;;;;47.85;28.52;;;2.00;99.90;;;;;;5006838;28;20044;-91
2021/12/06 04:11:31;;;;;;;49.75;29.10;;;2.00;99.90;;;;;;5009608;28;20049;-85
2021/12/06 04:13:57;;;;;;;48.53;28.27;;;1.60;99.90;;;;;;5005688;28;20050;-82
2021/12/06 04:16:22;;;;;;;45.17;28.98;;;2.10;99.90;;;;;;5007804;28;20034;-87
2021/12/06 04:18:49;;;;;;;44.58;27.38;;;2.00;99.90;;;;;;5008803;28;20139;-81
2021/12/06 04:21:16;;;;;;;46.42;28.15;;;2.10;99.90;;;;;;5008429;28;20038;-84
2021/12/06 04:23:42;;;;;;;46.75;26.42;;;2.10;99.90;;;;;;5009959;28;20045;-90
2021/12/06 04:26:07;;;;;;;47.08;28.85;;;2.20;99.90;;;;;;5009436;28;20045;-90
2021/12/06 04:28:35;;;;;;;45.20;27.42;;;2.00;99.90;;;;;;5010110;28;20057;-83
2021/12/06 04:31:04;;;;;;;48.03;27.45;;;2.10;99.90;;;;;;5008400;28;20137;-90
2021/12/06 04:33:30;;;;;;;47.80;27.58;;;2.10;99.90;;;;;;4997205;28;20136;-80
2021/12/06 04:35:57;;;;;;;48.50;28.33;;;2.10;99.90;;;;;;4988655;28;20196;-89
2021/12/06 04:38:22;;;;;;;46.22;28.15;;;2.00;99.90;;;;;;4988909;28;20050;-83
2021/12/06 04:40:48;;;;;;;49.58;28.27;;;2.10;99.90;;;;;;5007875;28;20474;-86
2021/12/06 04:43:14;;;;;;;46.13;27.55;;;2.10;99.90;;;;;;5007760;28;20045;-90
2021/12/06 04:45:40;;;;;;;45.88;27.13;;;2.10;99.90;;;;;;5007810;28;20034;-82
2021/12/06 04:48:08;;;;;;;46.08;27.10;;;3.90;99.90;;;;;;5015866;28;20038;-83
2021/12/06 04:50:34;;;;;;;52.15;29.50;;;2.20;99.90;;;;;;5017645;28;20045;-88
2021/12/06 04:53:06;;;;;;;52.65;29.13;;;2.10;99.90;;;;;;5003131;28;20042;-81
2021/12/06 04:55:36;;;;;;;50.42;29.25;;;2.20;99.90;;;;;;5008873;28;20474;-91
2021/12/06 04:58:04;;;;;;;48.42;28.55;;;2.10;99.90;;;;;;5007633;28;20041;-84
2021/12/06 05:00:39;;;;;;;53.30;29.60;;;2.00;99.90;;;;;;5005104;28;20052;-90
2021/12/06 05:03:07;;;;;;;47.88;28.48;;;2.10;99.90;;;;;;5002299;28;20482;-83
2021/12/06 05:05:42;;;;;;;50.72;29.33;;;2.00;99.90;;;;;;5002598;28;20034;-84
2021/12/06 05:08:15;;;;;;;45.00;27.05;;;2.10;99.90;;;;;;4987755;28;20042;-91
2021/12/06 05:10:42;;;;;;;50.05;29.77;;;2.10;99.90;;;;;;5008067;28;20506;-80
2021/12/06 05:13:09;;;;;;;49.85;28.30;;;2.00;99.90;;;;;;5006606;28;20066;-90
2021/12/06 05:15:34;;;;;;;56.17;29.98;;;2.00;99.90;;;;;;5007399;28;20049;-81
2021/12/06 05:18:00;;;;;;;58.95;30.80;;;2.50;99.90;;;;;;5008378;28;20046;-86
2021/12/06 05:20:27;;;;;;;50.65;29.50;;;2.00;99.90;;;;;;4982190;28;20049;-90
2021/12/06 05:22:53;;;;;;;54.90;29.55;;;2.00;99.90;;;;;;5005416;28;20049;-91
2021/12/06 05:25:22;;;;;;;55.78;31.02;;;2.00;99.90;;;;;;5006217;28;20050;-87
2021/12/06 05:27:49;;;;;;;55.58;30.45;;;2.00;99.90;;;;;;5005861;28;20572;-82
2021/12/06 05:30:15;;;;;;;57.20;30.23;;;2.00;99.90;;;;;;5007925;28;20113;-90
2021/12/06 05:32:42;;;;;;;51.20;28.45;;;2.00;99.90;;;;;;5007671;28;20042;-88
2021/12/06 05:35:10;;;;;;;51.47;29.42;;;2.10;99.90;;;;;;5011067;28;20095;-86
2021/12/06 05:37:40;;;;;;;52.28;28.48;;;2.90;99.90;;;;;;5003740;28;20049;-83
2021/12/06 05:40:09;;;;;;;50.30;28.60;;;3.20;99.90;;;;;;5010506;28;20046;-84
2021/12/06 05:42:35;;;;;;;51.85;28.40;;;2.10;99.90;;;;;;5011986;28;20471;-81
2021/12/06 05:45:01;;;;;;;52.42;29.02;;;2.00;99.90;;;;;;5011485;28;20133;-88
2021/12/06 05:47:27;;;;;;;52.97;29.52;;;2.10;99.90;;;;;;5011644;28;20042;-83
2021/12/06 05:49:53;;;;;;;57.40;29.05;;;2.10;99.90;;;;;;5005571;28;20049;-83
2021/12/06 05:52:19;;;;;;;57.25;29.52;;;2.10;99.90;;;;;;4986714;28;20070;-88
2021/12/06 05:54:44;;;;;;;52.70;28.55;;;2.10;99.90;;;;;;4988463;28;20438;-84
2021/12/06 05:57:12;;;;;;;58.00;29.02;;;2.00;99.90;;;;;;5008054;28;20046;-86
2021/12/06 05:59:39;;;;;;;54.83;28.00;;;2.10;99.90;;;;;;4991718;28;20084;-82
2021/12/06 06:02:06;;;;;;;53.25;29.33;;;3.60;99.90;;;;;;5008591;28;20090;-81
2021/12/06 06:04:33;;;;;;;52.65;28.13;;;1.80;99.90;;;;;;5004912;28;20049;-88
2021/12/06 06:07:00;;;;;;;55.22;29.38;;;1.90;99.90;;;;;;5005743;28;20056;-85
2021/12/06 06:09:25;;;;;;;55.22;27.67;;;2.10;99.90;;;;;;5006882;28;20120;-86
2021/12/06 06:11:51;;;;;;;51.72;26.58;;;2.10;99.90;;;;;;5008481;28;20398;-90
2021/12/06 06:14:17;;;;;;;52.28;27.15;;;2.00;99.90;;;;;;5007008;28;20389;-82
2021/12/06 06:16:47;;;;;;;50.72;27.42;;;3.00;99.90;;;;;;4995874;28;20038;-80
2021/12/06 06:19:16;;;;;;;55.42;27.25;;;2.00;99.90;;;;;;5011987;28;20151;-93
2021/12/06 06:21:41;;;;;;;53.50;27.67;;;2.10;99.90;;;;;;5011940;28;20034;-85
2021/12/06 06:24:07;;;;;;;49.40;26.98;;;2.10;99.90;;;;;;5009847;28;20092;-86
2021/12/06 06:26:32;;;;;;;54.60;28.55;;;2.10;99.90;;;;;;5012528;28;20081;-82
2021/12/06 06:28:58;;;;;;;62.03;31.20;;;2.00;99.90;;;;;;5012918;28;20053;-75
2021/12/06 06:31:24;;;;;;;57.20;28.98;;;2.00;99.90;;;;;;5012912;28;20133;-75
2021/12/06 06:33:49;;;;;;;57.90;30.08;;;3.50;99.90;;;;;;5010429;28;20046;-75
2021/12/06 06:36:15;;;;;;;57.55;28.38;;;2.50;99.90;;;;;;5009905;28;20457;-78
2021/12/06 06:38:48;;;;;;;54.49;28.19;;;2.10;99.90;;;;;;4559921;28;10002909;-78
2021/12/06 06:41:14;;;;;;;54.00;28.58;;;2.40;99.90;;;;;;5005979;28;20031;-82
2021/12/06 06:43:39;;;;;;;51.78;26.73;;;2.10;99.90;;;;;;5005033;28;20061;-83
2021/12/06 06:46:06;;;;;;;52.50;28.35;;;2.10;99.90;;;;;;5004486;28;20042;-85
2021/12/06 06:48:32;;;;;;;53.53;28.58;;;2.10;99.90;;;;;;5007041;28;20038;-87
2021/12/06 06:50:58;;;;;;;56.33;27.55;;;2.10;99.90;;;;;;5012885;28;20063;-89
2021/12/06 06:53:26;;;;;;;53.38;28.45;;;2.60;99.90;;;;;;5014265;28;20053;-90
2021/12/06 06:55:53;;;;;;;61.65;28.90;;;2.10;99.90;;;;;;5018202;28;20045;-90
2021/12/06 06:58:19;;;;;;;58.28;26.73;;;2.10;99.90;;;;;;5013961;28;20049;-87
2021/12/06 07:00:44;;;;;;;61.78;28.45;;;2.30;99.90;;;;;;5008735;28;20096;-88
2021/12/06 07:03:10;;;;;;;55.00;26.67;;;2.20;99.90;;;;;;5009324;28;20044;-87
2021/12/06 07:05:38;;;;;;;57.17;27.73;;;2.20;99.90;;;;;;5003503;28;20062;-86
2021/12/06 07:08:04;;;;;;;55.90;27.63;;;2.30;99.90;;;;;;5014604;28;20128;-79
2021/12/06 07:10:30;;;;;;;57.97;27.23;;;2.10;99.90;;;;;;5012277;28;20042;-88
2021/12/06 07:12:59;;;;;;;62.17;29.40;;;2.10;99.90;;;;;;5008930;28;20117;-88
2021/12/06 07:15:28;;;;;;;54.42;28.23;;;2.00;99.90;;;;;;5010571;28;20391;-86
2021/12/06 07:17:55;;;;;;;58.08;28.85;;;2.10;99.90;;;;;;5009654;28;20088;-86
2021/12/06 07:20:22;;;;;;;56.03;28.73;;;2.10;99.90;;;;;;5008944;28;20038;-87
2021/12/06 07:22:51;;;;;;;61.05;30.05;;;1.90;99.90;;;;;;5011960;28;20172;-87
2021/12/06 07:25:19;;;;;;;63.78;30.55;;;2.10;99.90;;;;;;5011538;28;20030;-82
2021/12/06 07:27:45;;;;;;;58.90;29.33;;;2.10;99.90;;;;;;5008290;28;20069;-88
2021/12/06 07:30:13;;;;;;;59.38;28.48;;;2.10;99.90;;;;;;5011128;28;20057;-84
2021/12/06 07:32:39;;;;;;;59.00;28.25;;;2.10;99.90;;;;;;5000208;28;20084;-86
2021/12/06 07:35:05;;;;;;;55.70;28.45;;;2.20;99.90;;;;;;5010108;28;20149;-84
2021/12/06 07:37:31;;;;;;;57.63;28.08;;;2.20;99.90;;;;;;5007777;28;20060;-82
2021/12/06 07:39:57;;;;;;;54.65;27.85;;;2.30;99.90;;;;;;5008076;28;20049;-88
2021/12/06 07:42:22;;;;;;;61.40;30.58;;;2.20;99.90;;;;;;5009900;28;20067;-82
2021/12/06 07:44:48;;;;;;;64.47;28.90;;;2.50;99.90;;;;;;5006734;28;20033;-87
2021/12/06 07:47:14;;;;;;;74.70;35.92;;;2.00;99.90;;;;;;5003935;28;20038;-84
2021/12/06 07:49:43;;;;;;;63.15;30.42;;;2.30;99.90;;;;;;5003591;28;20034;-87
2021/12/06 07:52:09;;;;;;;59.65;27.33;;;2.30;99.90;;;;;;5010536;28;20091;-89
2021/12/06 07:54:35;;;;;;;65.75;30.30;;;2.30;99.90;;;;;;5002779;28;20046;-85
2021/12/06 07:57:01;;;;;;;59.78;29.98;;;2.30;99.90;;;;;;5010288;28;20041;-83
2021/12/06 07:59:27;;;;;;;58.90;27.25;;;2.40;99.90;;;;;;5004224;28;20855;-86
2021/12/06 08:01:53;;;;;;;56.30;27.50;;;2.30;99.90;;;;;;5010243;28;20042;-83
2021/12/06 08:04:19;;;;;;;59.92;28.35;;;2.30;99.90;;;;;;5008233;28;20037;-79
2021/12/06 08:06:44;;;;;;;59.55;29.50;;;3.70;99.90;;;;;;5003626;28;20104;-79
2021/12/06 08:09:10;;;;;;;63.42;30.27;;;2.80;99.90;;;;;;5011154;28;20037;-88
2021/12/06 08:11:36;;;;;;;55.63;27.58;;;2.30;99.90;;;;;;5010614;28;20458;-82
2021/12/06 08:14:03;;;;;;;58.85;28.45;;;2.40;99.90;;;;;;5006433;28;20073;-79
2021/12/06 08:16:32;;;;;;;54.83;28.00;;;2.30;99.90;;;;;;5008311;28;20081;-89
2021/12/06 08:19:01;;;;;;;58.20;28.67;;;2.40;99.90;;;;;;5011441;28;20057;-88
2021/12/06 08:21:27;;;;;;;54.28;27.25;;;2.40;99.90;;;;;;5010091;28;20050;-88
2021/12/06 08:23:55;;;;;;;53.25;27.00;;;2.50;99.90;;;;;;5009489;28;20385;-87
2021/12/06 08:26:24;;;;;;;56.53;27.98;;;2.50;99.90;;;;;;5005042;28;20050;-89
2021/12/06 08:28:51;;;;;;;54.13;26.90;;;2.40;99.90;;;;;;5001147;28;20073;-81
2021/12/06 08:31:22;;;;;;;58.30;28.02;;;2.50;99.90;;;;;;5003737;28;20042;-84
2021/12/06 08:33:49;;;;;;;54.55;27.77;;;2.40;99.90;;;;;;5002546;28;20409;-89
2021/12/06 08:36:16;;;;;;;61.25;27.85;;;3.00;99.90;;;;;;5009085;28;20045;-89
2021/12/06 08:38:43;;;;;;;57.67;27.38;;;2.50;99.90;;;;;;5005164;28;20482;-88
2021/12/06 08:41:12;;;;;;;54.47;26.88;;;2.40;99.90;;;;;;4999866;28;20124;-89
2021/12/06 08:43:39;;;;;;;55.60;27.25;;;2.30;99.90;;;;;;5000987;28;20038;-89
2021/12/06 08:46:22;;;;;;;53.38;25.73;;;2.40;99.90;;;;;;4998749;28;20368;-89
2021/12/06 08:48:49;;;;;;;54.97;26.20;;;2.40;99.90;;;;;;5002798;28;20052;-82
2021/12/06 08:51:28;;;;;;;52.72;27.35;;;2.50;99.90;;;;;;5000025;28;20407;-82
2021/12/06 08:53:55;;;;;;;49.00;25.88;;;2.60;99.90;;;;;;5006217;28;20045;-87
2021/12/06 08:56:21;;;;;;;49.92;25.67;;;2.80;99.90;;;;;;5008634;28;20893;-77
2021/12/06 08:58:47;;;;;;;52.65;25.95;;;3.50;99.90;;;;;;5004158;28;20065;-79
2021/12/06 09:01:13;;;;;;;49.20;24.45;;;2.60;99.90;;;;;;5009223;28;20061;-83
2021/12/06 09:03:39;;;;;;;49.75;25.75;;;3.10;99.90;;;;;;5010429;28;20493;-86
2021/12/06 09:06:08;;;;;;;40.45;22.70;;;2.70;99.90;;;;;;5004037;28;20038;-87
2021/12/06 09:08:35;;;;;;;42.80;24.38;;;2.60;99.90;;;;;;5010185;28;20046;-83
2021/12/06 09:11:01;;;;;;;41.28;22.73;;;2.70;99.90;;;;;;5010305;28;20049;-86
2021/12/06 09:13:29;;;;;;;43.70;23.08;;;2.60;99.90;;;;;;5009445;28;20037;-86
2021/12/06 09:15:56;;;;;;;43.35;22.48;;;2.70;99.90;;;;;;5003125;28;20041;-88
2021/12/06 09:18:23;;;;;;;44.25;24.48;;;3.10;99.90;;;;;;5000042;28;20135;-87
2021/12/06 09:20:50;;;;;;;40.58;22.25;;;2.70;99.90;;;;;;5000936;28;20045;-79
2021/12/06 09:23:17;;;;;;;42.58;22.60;;;2.70;99.90;;;;;;5009114;28;20060;-87
2021/12/06 09:25:45;;;;;;;36.00;19.60;;;2.70;99.90;;;;;;5004060;28;20046;-87
2021/12/06 09:28:14;;;;;;;42.20;21.48;;;2.70;99.90;;;;;;5004398;28;20033;-86
2021/12/06 09:30:41;;;;;;;38.92;21.15;;;2.80;99.90;;;;;;5005677;28;20060;-85
2021/12/06 09:33:10;;;;;;;39.42;21.23;;;2.70;99.90;;;;;;5006416;28;20042;-81
2021/12/06 09:35:41;;;;;;;41.05;22.00;;;2.70;99.90;;;;;;5002597;28;20057;-89
2021/12/06 09:38:07;;;;;;;38.83;19.80;;;3.10;99.90;;;;;;5007941;28;20544;-80
2021/12/06 09:40:36;;;;;;;43.65;22.17;;;2.70;99.90;;;;;;5002401;28;20508;-86
2021/12/06 09:43:06;;;;;;;33.08;19.65;;;2.70;99.90;;;;;;5010104;28;20095;-80
2021/12/06 09:45:32;;;;;;;38.08;20.58;;;2.70;99.90;;;;;;5001291;28;20565;-85
2021/12/06 09:47:59;;;;;;;37.17;21.35;;;2.70;99.90;;;;;;5003342;28;20034;-88
2021/12/06 09:50:33;;;;;;;36.88;20.63;;;2.90;99.90;;;;;;5005042;28;20042;-88
2021/12/06 09:53:01;;;;;;;42.75;22.17;;;2.70;99.90;;;;;;5010156;28;20486;-88
2021/12/06 09:55:29;;;;;;;38.58;21.67;;;2.80;99.90;;;;;;5013096;28;20049;-88
2021/12/06 09:57:56;;;;;;;40.05;22.42;;;2.70;99.90;;;;;;5011289;28;20040;-87
2021/12/06 10:00:24;;;;;;;37.90;22.02;;;2.70;99.90;;;;;;5007401;28;20038;-87
2021/12/06 10:02:51;;;;;;;40.15;22.05;;;2.70;99.90;;;;;;4999848;28;20486;-83
2021/12/06 10:05:17;;;;;;;39.60;22.10;;;2.70;99.90;;;;;;5001297;28;20046;-88
2021/12/06 10:07:43;;;;;;;45.10;22.92;;;2.70;99.90;;;;;;5009587;28;20052;-82
2021/12/06 10:10:11;;;;;;;40.30;21.13;;;2.70;99.90;;;;;;5010668;28;20045;-85
2021/12/06 10:12:37;;;;;;;40.70;22.92;;;2.90;99.90;;;;;;5003346;28;20050;-84
2021/12/06 10:15:05;;;;;;;41.08;22.95;;;2.60;99.90;;;;;;5011284;28;20397;-87
2021/12/06 10:17:32;;;;;;;37.42;20.95;;;2.60;99.90;;;;;;5008131;28;20069;-88
2021/12/06 10:19:58;;;;;;;41.67;22.88;;;2.50;99.90;;;;;;5002150;28;20045;-85
2021/12/06 10:22:24;;;;;;;41.03;22.67;;;2.70;99.90;;;;;;5011286;28;20494;-85
2021/12/06 10:24:59;;;;;;;39.88;21.70;;;2.60;99.90;;;;;;5012601;28;20034;-89
2021/12/06 10:27:26;;;;;;;43.38;22.13;;;2.70;99.90;;;;;;5009842;28;20421;-80
2021/12/06 10:29:59;;;;;;;33.65;20.17;;;2.60;99.90;;;;;;5003928;28;20026;-86
2021/12/06 10:32:30;;;;;;;40.85;22.08;;;2.70;99.90;;;;;;5005591;28;20038;-89
2021/12/06 10:34:59;;;;;;;37.00;22.38;;;2.70;99.90;;;;;;5000572;28;20402;-83
2021/12/06 10:37:31;;;;;;;40.63;24.17;;;2.60;99.90;;;;;;5002872;28;20387;-89
2021/12/06 10:39:57;;;;;;;42.13;23.60;;;2.60;99.90;;;;;;5003192;28;20069;-84
2021/12/06 10:42:36;;;;;;;42.42;24.25;;;2.60;99.90;;;;;;5015985;28;20045;-87
2021/12/06 10:45:09;;;;;;;43.92;25.45;;;2.60;99.90;;;;;;5005157;28;20038;-84
2021/12/06 10:47:35;;;;;;;48.08;26.02;;;2.60;99.90;;;;;;5008414;28;20050;-80
2021/12/06 10:50:16;;;;;;;52.95;30.33;;;2.60;99.90;;;;;;5007004;28;20043;-83
2021/12/06 10:52:55;;;;;;;63.35;33.95;;;2.60;99.90;;;;;;5009179;28;20183;-85
2021/12/06 10:55:26;;;;;;;64.68;35.78;;;2.60;99.90;;;;;;5010721;28;20557;-84
2021/12/06 10:57:54;;;;;;;68.78;36.83;;;2.60;99.90;;;;;;5008586;28;20049;-86
2021/12/06 11:00:37;;;;;;;62.78;33.60;;;2.60;99.90;;;;;;5016043;28;20046;-84
2021/12/06 11:03:04;;;;;;;61.22;32.38;;;2.80;99.90;;;;;;5005118;28;20520;-84
2021/12/06 11:05:33;;;;;;;51.65;29.75;;;2.60;99.90;;;;;;5016255;28;20133;-79
2021/12/06 11:08:14;;;;;;;52.72;29.00;;;2.60;99.90;;;;;;5011992;28;20117;-83
2021/12/06 11:10:46;;;;;;;48.38;27.02;;;2.60;99.90;;;;;;5005826;28;20061;-81
2021/12/06 11:13:13;;;;;;;44.90;24.42;;;2.70;99.90;;;;;;5011884;28;20473;-83
2021/12/06 11:16:14;;;;;;;38.63;22.27;;;2.70;99.90;;;;;;5008045;28;20094;-85
2021/12/06 11:18:41;;;;;;;44.70;23.25;;;2.70;99.90;;;;;;4993146;28;20124;-86
2021/12/06 11:21:21;;;;;;;44.97;24.95;;;3.10;99.90;;;;;;5007255;28;20114;-81
2021/12/06 11:24:10;;;;;;;48.13;27.33;;;2.70;99.90;;;;;;5001633;28;20046;-89
2021/12/06 11:26:43;;;;;;;45.55;22.98;;;2.70;99.90;;;;;;5005182;28;20042;-85
2021/12/06 11:29:15;;;;;;;41.90;23.02;;;2.70;99.90;;;;;;5012154;28;20512;-80
2021/12/06 11:31:49;;;;;;;42.15;22.45;;;2.70;99.90;;;;;;5006653;28;20034;-87
2021/12/06 11:34:15;;;;;;;37.13;20.52;;;3.10;99.90;;;;;;5012798;28;20048;-85
2021/12/06 11:36:42;;;;;;;33.20;19.88;;;2.80;99.90;;;;;;5010698;28;20393;-83
2021/12/06 11:39:19;;;;;;;36.20;21.60;;;2.70;99.90;;;;;;5005994;28;20046;-86
2021/12/06 11:41:57;;;;;;;34.33;20.17;;;2.70;99.90;;;;;;5011828;28;20038;-83
2021/12/06 11:44:30;;;;;;;41.05;22.10;;;2.80;99.90;;;;;;5007434;28;20466;-79
2021/12/06 11:47:11;;;;;;;34.78;19.88;;;2.80;99.90;;;;;;5011057;28;20117;-83
2021/12/06 11:49:38;;;;;;;38.58;19.83;;;2.80;99.90;;;;;;4996609;28;20658;-88
2021/12/06 11:52:07;;;;;;;40.60;21.08;;;2.80;99.90;;;;;;5004429;28;20037;-86
2021/12/06 11:54:44;;;;;;;37.20;19.73;;;2.90;99.90;;;;;;5010361;28;20081;-86
2021/12/06 11:57:12;;;;;;;36.88;20.33;;;2.80;99.90;;;;;;5008269;28;20085;-86
2021/12/06 12:00:15;;;;;;;31.48;18.73;;;2.90;99.90;;;;;;5008514;28;20049;-88
2021/12/06 12:02:47;;;;;;;37.92;19.85;;;3.00;99.90;;;;;;5007034;28;20057;-85
2021/12/06 12:05:31;;;;;;;34.25;19.25;;;2.90;99.90;;;;;;4995161;28;20513;-82
2021/12/06 12:08:14;;;;;;;25.33;16.05;;;2.90;99.90;;;;;;5008969;28;20045;-84
2021/12/06 12:10:48;;;;;;;26.98;16.38;;;2.80;99.90;;;;;;5010966;28;20037;-87
2021/12/06 12:13:34;;;;;;;27.30;16.77;;;2.90;99.90;;;;;;5002197;28;20038;-85
2021/12/06 12:16:09;;;;;;;28.80;17.95;;;2.90;99.90;;;;;;5010263;28;20049;-85
2021/12/06 12:18:38;;;;;;;31.02;17.98;;;2.90;99.90;;;;;;5002924;28;20096;-84
2021/12/06 12:21:07;;;;;;;29.33;17.25;;;4.60;99.90;;;;;;5007207;28;20034;-79
2021/12/06 12:23:33;;;;;;;29.17;18.33;;;2.90;99.90;;;;;;5005111;28;20042;-86
2021/12/06 12:26:04;;;;;;;31.65;17.73;;;2.90;99.90;;;;;;5006887;28;20091;-89
2021/12/06 12:28:38;;;;;;;36.90;18.85;;;2.90;99.90;;;;;;5007885;28;20042;-87
2021/12/06 12:31:07;;;;;;;35.13;20.13;;;4.20;99.90;;;;;;4985336;28;20432;-79
2021/12/06 12:33:34;;;;;;;38.25;20.50;;;2.90;99.90;;;;;;4985605;28;20050;-86
2021/12/06 12:36:07;;;;;;;42.83;20.80;;;2.90;99.90;;;;;;5006279;28;20084;-83
2021/12/06 12:38:34;;;;;;;39.38;20.80;;;2.90;99.90;;;;;;5009970;28;20038;-81
2021/12/06 12:41:12;;;;;;;41.35;21.20;;;4.10;99.90;;;;;;5009602;28;20053;-87
2021/12/06 12:43:41;;;;;;;36.45;19.38;;;3.00;99.90;;;;;;5006734;28;20050;-80
2021/12/06 12:46:09;;;;;;;39.83;20.95;;;2.90;99.90;;;;;;5006326;28;20173;-84
2021/12/06 12:48:49;;;;;;;41.30;21.15;;;2.90;99.90;;;;;;5008664;28;20049;-80
2021/12/06 12:51:19;;;;;;;41.63;22.25;;;2.90;99.90;;;;;;4998722;28;20128;-80
2021/12/06 12:54:08;;;;;;;37.65;20.50;;;4.50;99.90;;;;;;5010029;28;20124;-83
2021/12/06 12:56:50;;;;;;;42.88;22.23;;;2.90;99.90;;;;;;5005417;28;20425;-83
2021/12/06 12:59:33;;;;;;;40.22;21.95;;;3.00;99.90;;;;;;5008732;28;20050;-85